createdAt,value
2018-02-21T00:01:26.847Z,-1.70
2018-02-21T00:03:53.179Z,-1.60
2018-02-21T00:06:19.495Z,-1.70
2018-02-21T00:08:45.907Z,-1.60
2018-02-21T00:11:12.953Z,-1.70
2018-02-21T00:13:39.443Z,-1.70
2018-02-21T00:16:05.791Z,-1.70
2018-02-21T00:18:32.121Z,-1.70
2018-02-21T00:20:58.455Z,-1.70
2018-02-21T00:23:24.780Z,-1.70
2018-02-21T00:25:51.118Z,-3.50
2018-02-21T00:28:17.467Z,-1.80
2018-02-21T00:30:44.494Z,-1.80
2018-02-21T00:33:10.831Z,-1.90
2018-02-21T00:35:37.167Z,-1.80
2018-02-21T00:38:03.503Z,-1.80
2018-02-21T00:40:29.817Z,-1.80
2018-02-21T00:42:56.167Z,-1.80
2018-02-21T00:45:22.584Z,-1.70
2018-02-21T00:47:48.939Z,-2.70
2018-02-21T00:50:15.353Z,-1.80
2018-02-21T00:52:41.779Z,-1.90
2018-02-21T00:55:08.061Z,-1.90
2018-02-21T00:57:34.390Z,-1.80
2018-02-21T01:00:00.718Z,-1.80
2018-02-21T01:02:27.122Z,-1.90
2018-02-21T01:04:53.508Z,-1.90
2018-02-21T01:07:19.939Z,-1.90
2018-02-21T01:09:46.308Z,-0.80
2018-02-21T01:12:12.631Z,-1.90
2018-02-21T01:14:38.994Z,-1.90
2018-02-21T01:17:05.396Z,-2.00
2018-02-21T01:19:31.738Z,-1.90
2018-02-21T01:21:58.087Z,-2.40
2018-02-21T01:24:24.492Z,-1.90
2018-02-21T01:26:50.827Z,-1.90
2018-02-21T01:29:17.260Z,-2.00
2018-02-21T01:31:43.592Z,-2.00
2018-02-21T01:34:10.024Z,-2.00
2018-02-21T01:36:36.349Z,-2.10
2018-02-21T01:39:02.730Z,-2.10
2018-02-21T01:41:29.796Z,-2.10
2018-02-21T01:43:56.236Z,-2.20
2018-02-21T01:46:22.607Z,-2.10
2018-02-21T01:48:49.057Z,-2.10
2018-02-21T01:51:16.249Z,-2.00
2018-02-21T01:53:42.638Z,-2.00
2018-02-21T01:56:09.017Z,-2.00
2018-02-21T01:58:35.346Z,-2.60
2018-02-21T02:01:01.738Z,-2.10
2018-02-21T02:03:28.156Z,-2.10
2018-02-21T02:05:54.587Z,-2.00
2018-02-21T02:08:21.005Z,-2.20
2018-02-21T02:10:47.348Z,-2.20
2018-02-21T02:13:13.752Z,-2.20
2018-02-21T02:15:40.115Z,-2.20
2018-02-21T02:18:06.507Z,-2.20
2018-02-21T02:20:32.865Z,-2.30
2018-02-21T02:22:59.268Z,-2.30
2018-02-21T02:25:26.349Z,-2.30
2018-02-21T02:27:52.658Z,-2.30
2018-02-21T02:30:19.045Z,-2.30
2018-02-21T02:32:45.462Z,-2.30
2018-02-21T02:35:11.846Z,-2.30
2018-02-21T02:37:38.202Z,-2.30
2018-02-21T02:40:04.638Z,-2.30
2018-02-21T02:42:31.040Z,-2.30
2018-02-21T02:44:57.399Z,-2.30
2018-02-21T02:47:23.804Z,-2.30
2018-02-21T02:49:50.113Z,-2.40
2018-02-21T02:52:16.472Z,-2.20
2018-02-21T02:54:42.870Z,-2.40
2018-02-21T02:57:09.208Z,-2.50
2018-02-21T02:59:35.557Z,-2.50
2018-02-21T03:02:01.850Z,-2.60
2018-02-21T03:04:28.212Z,-2.60
2018-02-21T03:06:54.766Z,-2.60
2018-02-21T03:09:21.847Z,-2.60
2018-02-21T03:11:48.249Z,-2.70
2018-02-21T03:14:14.562Z,-2.60
2018-02-21T03:16:40.955Z,-2.60
2018-02-21T03:19:07.332Z,-2.60
2018-02-21T03:21:33.674Z,-2.60
2018-02-21T03:24:00.850Z,-2.60
2018-02-21T03:26:27.201Z,-2.70
2018-02-21T03:28:53.639Z,-2.70
2018-02-21T03:31:20.050Z,-2.70
2018-02-21T03:33:46.351Z,-2.70
2018-02-21T03:36:12.667Z,-2.70
2018-02-21T03:38:38.990Z,-2.70
2018-02-21T03:41:05.428Z,-2.70
2018-02-21T03:43:31.902Z,-2.70
2018-02-21T03:48:58.355Z,-2.80
2018-02-21T03:51:24.683Z,-2.80
2018-02-21T03:53:51.183Z,-2.90
2018-02-21T03:56:17.660Z,-2.90
2018-02-21T03:58:44.038Z,-2.90
2018-02-21T04:01:10.509Z,-2.80
2018-02-21T04:03:37.681Z,-2.80
2018-02-21T04:06:04.811Z,-2.80
2018-02-21T04:08:31.152Z,-2.80
2018-02-21T04:10:57.576Z,-2.70
2018-02-21T04:13:23.979Z,-2.80
2018-02-21T04:15:50.334Z,-2.80
2018-02-21T04:18:16.737Z,-2.80
2018-02-21T04:20:43.219Z,-2.80
2018-02-21T04:23:09.684Z,-2.80
2018-02-21T04:25:36.064Z,-2.80
2018-02-21T04:28:02.548Z,-2.80
2018-02-21T04:30:28.942Z,-2.80
2018-02-21T04:32:55.352Z,-4.40
2018-02-21T04:35:21.819Z,-2.90
2018-02-21T04:37:48.217Z,-2.90
2018-02-21T04:40:14.662Z,-2.80
2018-02-21T04:42:41.169Z,-2.90
2018-02-21T04:45:07.539Z,-3.00
2018-02-21T04:47:33.968Z,-3.10
2018-02-21T04:50:00.513Z,-3.00
2018-02-21T04:52:26.954Z,-2.90
2018-02-21T04:54:59.533Z,-2.70
2018-02-21T04:57:32.122Z,-2.90
2018-02-21T05:00:13.430Z,-3.00
2018-02-21T05:02:40.780Z,-3.00
2018-02-21T05:05:07.977Z,-3.10
2018-02-21T05:07:35.237Z,-3.10
2018-02-21T05:10:02.343Z,-3.10
2018-02-21T05:12:31.585Z,-3.20
2018-02-21T05:14:57.960Z,-3.10
2018-02-21T05:17:24.307Z,-4.00
2018-02-21T05:19:50.732Z,-3.10
2018-02-21T05:22:17.056Z,-3.10
2018-02-21T05:24:43.486Z,-3.10
2018-02-21T05:27:09.890Z,-3.10
2018-02-21T05:29:36.176Z,-4.90
2018-02-21T05:32:02.489Z,-3.00
2018-02-21T05:34:28.853Z,-3.00
2018-02-21T05:36:55.130Z,-3.00
2018-02-21T05:39:21.523Z,-3.10
2018-02-21T05:41:47.866Z,-3.00
2018-02-21T05:44:14.965Z,-3.10
2018-02-21T05:46:41.373Z,-3.10
2018-02-21T05:49:07.730Z,-3.10
2018-02-21T05:51:34.029Z,-3.00
2018-02-21T05:54:00.416Z,-3.00
2018-02-21T05:56:26.847Z,-3.00
2018-02-21T05:58:53.261Z,-3.00
2018-02-21T06:01:19.756Z,-3.00
2018-02-21T06:03:46.254Z,-3.00
2018-02-21T06:06:12.688Z,-3.00
2018-02-21T06:08:39.078Z,-3.00
2018-02-21T06:11:05.544Z,-3.00
2018-02-21T06:13:31.991Z,-2.90
2018-02-21T06:15:58.476Z,-2.90
2018-02-21T06:18:24.983Z,-2.80
2018-02-21T06:20:51.358Z,-2.80
2018-02-21T06:23:17.768Z,-2.60
2018-02-21T06:25:44.581Z,-2.60
2018-02-21T06:28:11.268Z,-2.50
2018-02-21T06:30:38.298Z,-2.10
2018-02-21T06:33:04.660Z,-2.20
2018-02-21T06:35:31.118Z,-2.00
2018-02-21T06:37:57.466Z,-1.80
2018-02-21T06:40:23.936Z,-1.70
2018-02-21T06:42:51.114Z,-1.50
2018-02-21T06:45:17.517Z,-1.70
2018-02-21T06:47:44.683Z,-1.40
2018-02-21T06:50:11.132Z,-1.50
2018-02-21T06:52:37.575Z,-1.30
2018-02-21T06:55:04.095Z,-1.20
2018-02-21T06:57:30.571Z,-1.20
2018-02-21T06:59:57.001Z,-1.00
2018-02-21T07:02:34.687Z,-0.90
2018-02-21T07:05:01.141Z,-0.60
2018-02-21T07:07:27.621Z,-0.20
2018-02-21T07:09:54.038Z,0.10
2018-02-21T07:12:20.431Z,0.50
2018-02-21T07:14:46.909Z,1.00
2018-02-21T07:17:13.363Z,1.20
2018-02-21T07:19:39.755Z,1.40
2018-02-21T07:22:06.161Z,1.60
2018-02-21T07:24:32.628Z,2.00
2018-02-21T07:26:59.027Z,2.20
2018-02-21T07:29:25.467Z,2.60
2018-02-21T07:31:51.851Z,3.10
2018-02-21T07:34:18.259Z,3.90
2018-02-21T07:36:44.641Z,4.50
2018-02-21T07:39:11.120Z,5.10
2018-02-21T07:41:37.562Z,5.50
2018-02-21T07:44:03.989Z,6.30
2018-02-21T07:46:30.220Z,7.10
2018-02-21T07:48:56.671Z,7.80
2018-02-21T07:51:22.813Z,8.50
2018-02-21T07:53:49.727Z,9.30
2018-02-21T07:56:16.161Z,9.20
2018-02-21T07:58:42.600Z,9.80
2018-02-21T08:01:08.980Z,10.60
2018-02-21T08:03:35.318Z,11.20
2018-02-21T08:06:01.699Z,12.10
2018-02-21T08:08:28.118Z,12.90
2018-02-21T08:10:54.510Z,13.80
2018-02-21T08:13:20.647Z,14.60
2018-02-21T08:15:47.126Z,15.40
2018-02-21T08:18:14.284Z,16.20
2018-02-21T08:20:40.786Z,16.10
2018-02-21T08:23:07.125Z,16.10
2018-02-21T08:25:33.577Z,16.10
2018-02-21T08:28:00.115Z,16.30
2018-02-21T08:30:26.583Z,16.30
2018-02-21T08:32:53.604Z,15.70
2018-02-21T08:35:19.843Z,15.70
2018-02-21T08:37:47.170Z,15.50
2018-02-21T08:40:14.252Z,15.30
2018-02-21T08:42:40.651Z,15.30
2018-02-21T08:45:07.008Z,15.30
2018-02-21T08:47:33.462Z,15.90
2018-02-21T08:49:59.899Z,16.70
2018-02-21T08:52:26.328Z,17.70
2018-02-21T08:54:52.787Z,18.50
2018-02-21T08:57:19.239Z,19.40
2018-02-21T08:59:45.761Z,20.10
2018-02-21T09:02:12.114Z,20.80
2018-02-21T09:04:38.471Z,21.40
2018-02-21T09:07:04.917Z,21.10
2018-02-21T09:09:31.223Z,21.30
2018-02-21T09:11:57.689Z,21.00
2018-02-21T09:14:24.166Z,20.50
2018-02-21T09:16:50.579Z,20.10
2018-02-21T09:19:17.008Z,20.00
2018-02-21T09:21:43.382Z,19.20
2018-02-21T09:24:09.905Z,18.90
2018-02-21T09:26:37.253Z,20.20
2018-02-21T09:29:03.676Z,20.20
2018-02-21T09:31:29.839Z,21.40
2018-02-21T09:33:56.320Z,22.50
2018-02-21T09:36:22.690Z,23.20
2018-02-21T09:38:48.895Z,24.80
2018-02-21T09:41:15.832Z,25.90
2018-02-21T09:43:41.998Z,26.60
2018-02-21T09:46:08.176Z,27.20
2018-02-21T09:48:34.320Z,26.80
2018-02-21T09:51:00.708Z,26.90
2018-02-21T09:53:27.095Z,25.90
2018-02-21T09:55:53.696Z,25.40
2018-02-21T09:58:20.105Z,25.40
2018-02-21T10:00:46.506Z,25.60
2018-02-21T10:03:12.871Z,26.50
2018-02-21T10:05:39.336Z,27.10
2018-02-21T10:08:05.705Z,27.70
2018-02-21T10:10:32.154Z,28.40
2018-02-21T10:12:58.633Z,29.00
2018-02-21T10:15:25.778Z,29.20
2018-02-21T10:17:52.750Z,29.40
2018-02-21T10:20:18.915Z,29.40
2018-02-21T10:22:45.151Z,28.80
2018-02-21T10:25:11.566Z,27.80
2018-02-21T10:27:37.991Z,26.70
2018-02-21T10:30:04.479Z,24.90
2018-02-21T10:32:34.848Z,21.90
2018-02-21T10:35:01.389Z,21.70
2018-02-21T10:37:31.045Z,20.90
2018-02-21T10:39:57.947Z,20.60
2018-02-21T10:42:24.597Z,20.20
2018-02-21T10:44:50.951Z,19.90
2018-02-21T10:47:18.123Z,19.80
2018-02-21T10:49:44.354Z,19.70
2018-02-21T10:52:10.681Z,20.00
2018-02-21T10:54:36.856Z,20.10
2018-02-21T11:32:40.738Z,15.60
2018-02-21T11:35:09.789Z,6.80
2018-02-21T11:37:37.407Z,6.60
2018-02-21T11:40:03.980Z,6.50
2018-02-21T11:42:30.654Z,6.80
2018-02-21T11:44:57.232Z,7.30
2018-02-21T11:47:23.695Z,6.90
2018-02-21T11:49:50.262Z,7.30
2018-02-21T11:52:16.722Z,7.40
2018-02-21T12:12:48.915Z,24.10
2018-02-21T12:15:15.514Z,21.60
2018-02-21T12:17:41.778Z,19.40
2018-02-21T12:20:08.386Z,17.90
2018-02-21T12:22:35.045Z,16.20
2018-02-21T12:25:01.335Z,15.10
2018-02-21T12:27:27.810Z,13.40
2018-02-21T12:29:54.347Z,12.00
2018-02-21T12:32:26.983Z,10.90
2018-02-21T12:34:53.708Z,10.10
2018-02-21T12:37:20.240Z,9.20
2018-02-21T12:39:46.753Z,8.60
2018-02-21T12:42:13.314Z,8.00
2018-02-21T12:44:39.835Z,7.40
2018-02-21T12:47:06.515Z,7.10
2018-02-21T12:49:33.075Z,7.10
2018-02-21T12:51:59.610Z,7.00
2018-02-21T12:54:27.029Z,6.90
2018-02-21T12:56:53.503Z,6.70
2018-02-21T12:59:20.320Z,6.60
2018-02-21T13:01:46.808Z,6.40
2018-02-21T13:04:13.337Z,6.40
2018-02-21T13:06:40.012Z,6.40
2018-02-21T13:14:22.864Z,6.50
2018-02-21T13:16:53.164Z,6.40
2018-02-21T13:19:23.626Z,6.50
2018-02-21T13:21:54.018Z,6.40
2018-02-21T13:24:24.373Z,6.30
2018-02-21T13:26:54.651Z,6.20
2018-02-21T13:29:24.963Z,6.20
2018-02-21T13:31:55.236Z,6.10
2018-02-21T13:34:25.802Z,5.90
2018-02-21T13:36:56.215Z,5.80
2018-02-21T13:39:27.497Z,5.50
2018-02-21T13:42:00.650Z,5.20
2018-02-21T13:44:31.032Z,5.10
2018-02-21T13:47:01.484Z,5.10
2018-02-21T13:49:31.868Z,5.00
2018-02-21T13:52:02.281Z,5.10
2018-02-21T13:54:32.646Z,5.10
2018-02-21T13:57:03.044Z,5.20
2018-02-21T13:59:33.421Z,5.10
2018-02-21T14:02:04.227Z,5.10
2018-02-21T14:04:34.671Z,5.10
2018-02-21T14:07:05.287Z,5.30
2018-02-21T14:09:35.531Z,5.70
2018-02-21T14:12:06.109Z,5.70
2018-02-21T14:14:36.374Z,5.60
2018-02-21T14:17:06.838Z,5.30
2018-02-21T14:19:38.204Z,5.10
2018-02-21T14:22:08.631Z,5.00
2018-02-21T14:24:39.001Z,5.00
2018-02-21T14:27:10.519Z,5.00
2018-02-21T14:29:41.039Z,4.90
2018-02-21T14:32:11.461Z,4.90
2018-02-21T14:34:41.828Z,4.70
2018-02-21T14:37:12.077Z,4.60
2018-02-21T14:39:43.216Z,4.60
2018-02-21T14:42:13.313Z,4.50
2018-02-21T14:44:43.740Z,4.50
2018-02-21T14:47:14.431Z,4.70
2018-02-21T14:49:44.803Z,5.00
2018-02-21T14:52:15.248Z,5.10
2018-02-21T14:54:46.400Z,4.80
2018-02-21T14:57:16.643Z,4.60
2018-02-21T14:59:47.057Z,4.30
2018-02-21T15:02:17.259Z,4.20
2018-02-21T15:04:47.670Z,4.00
2018-02-21T15:07:18.132Z,3.90
2018-02-21T15:09:48.546Z,3.80
2018-02-21T15:12:18.982Z,3.70
2018-02-21T15:14:49.382Z,3.60
2018-02-21T15:17:19.807Z,3.50
2018-02-21T15:19:50.234Z,3.40
2018-02-21T15:22:20.604Z,3.30
2018-02-21T15:24:51.071Z,3.20
2018-02-21T15:27:21.811Z,3.10
2018-02-21T15:29:52.337Z,3.10
2018-02-21T15:32:22.812Z,2.90
2018-02-21T15:34:53.294Z,2.90
2018-02-21T15:37:23.888Z,2.80
2018-02-21T15:39:54.388Z,2.70
2018-02-21T15:42:25.518Z,2.60
2018-02-21T15:44:55.928Z,2.60
2018-02-21T15:47:26.643Z,2.60
2018-02-21T15:49:57.703Z,3.20
2018-02-21T15:52:28.231Z,3.10
2018-02-21T15:54:58.675Z,3.30
2018-02-21T15:57:29.175Z,3.20
2018-02-21T15:59:59.546Z,3.00
2018-02-21T16:02:30.690Z,2.80
2018-02-21T16:05:01.146Z,2.60
2018-02-21T16:07:33.585Z,2.50
2018-02-21T16:10:04.098Z,2.40
2018-02-21T16:12:34.578Z,2.30
2018-02-21T16:15:05.507Z,2.10
2018-02-21T16:17:36.318Z,2.00
2018-02-21T16:20:07.008Z,2.00
2018-02-21T16:22:37.288Z,2.00
2018-02-21T16:25:07.628Z,1.90
2018-02-21T16:27:37.933Z,1.90
2018-02-21T16:30:08.329Z,1.80
2018-02-21T16:32:38.919Z,1.80
2018-02-21T16:35:09.387Z,1.70
2018-02-21T16:37:40.420Z,1.60
2018-02-21T16:40:10.841Z,1.60
2018-02-21T16:42:41.305Z,1.60
2018-02-21T16:45:11.647Z,2.90
2018-02-21T16:47:42.073Z,3.90
2018-02-21T16:50:12.664Z,4.70
2018-02-21T16:52:43.115Z,4.80
2018-02-21T16:55:13.519Z,4.40
2018-02-21T16:57:44.899Z,3.30
2018-02-21T17:00:15.397Z,3.20
2018-02-21T17:02:54.669Z,2.80
2018-02-21T17:05:25.102Z,2.50
2018-02-21T17:07:55.588Z,2.20
2018-02-21T17:10:26.075Z,2.00
2018-02-21T17:12:56.620Z,1.80
2018-02-21T17:15:27.168Z,1.70
2018-02-21T17:17:57.679Z,1.50
2018-02-21T17:20:27.862Z,1.50
2018-02-21T17:22:58.348Z,1.40
2018-02-21T17:25:28.735Z,1.30
2018-02-21T17:27:59.101Z,1.30
2018-02-21T17:30:29.472Z,1.40
2018-02-21T17:33:00.131Z,1.40
2018-02-21T17:35:30.533Z,1.30
2018-02-21T17:38:01.005Z,1.20
2018-02-21T17:40:31.106Z,1.20
2018-02-21T17:43:01.937Z,1.10
2018-02-21T17:45:32.132Z,1.10
2018-02-21T17:48:03.049Z,1.10
2018-02-21T17:50:33.418Z,1.00
2018-02-21T17:53:03.871Z,1.00
2018-02-21T17:55:34.338Z,1.00
2018-02-21T17:58:05.812Z,1.00
2018-02-21T18:00:37.225Z,1.00
2018-02-21T18:03:07.683Z,0.90
2018-02-21T18:05:38.400Z,0.90
2018-02-21T18:08:08.783Z,0.80
2018-02-21T18:10:39.070Z,0.80
2018-02-21T18:13:09.625Z,0.80
2018-02-21T18:15:40.781Z,1.30
2018-02-21T18:18:11.879Z,1.20
2018-02-21T18:20:42.382Z,2.20
2018-02-21T18:23:13.011Z,3.30
2018-02-21T18:25:44.195Z,3.40
2018-02-21T18:28:14.680Z,3.00
2018-02-21T18:30:45.948Z,2.50
2018-02-21T18:33:16.367Z,2.10
2018-02-21T18:35:46.738Z,1.80
2018-02-21T18:38:16.841Z,1.60
2018-02-21T18:40:47.228Z,1.40
2018-02-21T18:43:17.259Z,1.30
2018-02-21T18:45:48.409Z,1.20
2018-02-21T18:48:18.769Z,1.10
2018-02-21T18:50:49.194Z,1.10
2018-02-21T18:53:19.531Z,1.10
2018-02-21T18:55:49.936Z,1.00
2018-02-21T18:58:20.455Z,1.00
2018-02-21T19:00:50.994Z,0.90
2018-02-21T19:03:21.223Z,1.00
2018-02-21T19:05:51.529Z,0.90
2018-02-21T19:08:22.135Z,0.90
2018-02-21T19:10:53.242Z,0.90
2018-02-21T19:13:23.860Z,0.80
2018-02-21T19:15:54.279Z,0.90
2018-02-21T19:18:25.765Z,0.90
2018-02-21T19:20:56.218Z,0.80
2018-02-21T19:23:34.707Z,0.90
2018-02-21T19:32:19.607Z,1.90
2018-02-21T19:34:50.052Z,2.10
2018-02-21T19:37:20.561Z,1.80
2018-02-21T19:39:51.285Z,1.60
2018-02-21T19:42:21.822Z,1.30
2018-02-21T19:44:53.251Z,1.10
2018-02-21T19:47:23.877Z,1.00
2018-02-21T19:49:54.628Z,0.90
2018-02-21T19:52:25.181Z,0.80
2018-02-21T19:54:55.944Z,0.80
2018-02-21T20:03:30.457Z,0.70
2018-02-21T20:06:01.136Z,0.60
2018-02-21T20:08:31.623Z,0.60
2018-02-21T20:11:02.117Z,0.60
2018-02-21T20:13:32.495Z,0.60
2018-02-21T20:16:03.166Z,0.60
2018-02-21T20:18:33.552Z,0.60
2018-02-21T20:21:03.827Z,0.60
2018-02-21T20:23:34.422Z,0.60
2018-02-21T20:26:04.878Z,0.60
2018-02-21T20:28:34.861Z,0.60
2018-02-21T20:31:05.199Z,0.60
2018-02-21T20:33:35.397Z,0.60
2018-02-21T20:36:05.752Z,0.60
2018-02-21T20:38:35.811Z,0.60
2018-02-21T20:41:06.297Z,0.60
2018-02-21T20:43:36.691Z,0.60
2018-02-21T20:46:07.308Z,0.60
2018-02-21T20:48:37.394Z,0.60
2018-02-21T20:51:07.835Z,0.50
2018-02-21T20:53:38.192Z,0.50
2018-02-21T20:56:08.694Z,0.50
2018-02-21T20:58:39.178Z,0.50
2018-02-21T21:01:09.747Z,0.50
2018-02-21T21:03:40.123Z,0.50
2018-02-21T21:06:10.552Z,0.40
2018-02-21T21:08:41.140Z,0.40
2018-02-21T21:11:13.388Z,0.40
2018-02-21T21:13:43.972Z,0.30
2018-02-21T21:16:14.393Z,0.40
2018-02-21T21:18:44.814Z,0.30
2018-02-21T21:21:15.338Z,0.30
2018-02-21T21:23:45.722Z,0.30
2018-02-21T21:26:16.120Z,0.30
2018-02-21T21:28:46.529Z,0.30
2018-02-21T21:31:17.668Z,0.30
2018-02-21T21:33:47.960Z,0.20
2018-02-21T21:36:18.522Z,0.30
2018-02-21T21:38:48.915Z,0.30
2018-02-21T21:41:19.994Z,0.30
2018-02-21T21:43:50.544Z,0.30
2018-02-21T21:46:21.689Z,0.20
2018-02-21T21:48:52.042Z,0.20
2018-02-21T21:51:23.833Z,0.20
2018-02-21T21:53:54.279Z,0.20
2018-02-21T21:56:24.817Z,0.20
2018-02-21T21:58:55.357Z,0.20
2018-02-21T22:01:25.749Z,0.20
2018-02-21T22:03:56.179Z,0.10
2018-02-21T22:06:26.560Z,0.10
2018-02-21T22:08:57.017Z,0.10
2018-02-21T22:11:27.385Z,0.00
2018-02-21T22:13:57.741Z,0.00
2018-02-21T22:16:28.669Z,-0.10
2018-02-21T22:18:59.731Z,-0.10
2018-02-21T22:21:30.312Z,-0.10
2018-02-21T22:24:00.768Z,-0.10
2018-02-21T22:26:31.678Z,-0.10
2018-02-21T22:29:02.209Z,-0.20
2018-02-21T22:31:32.782Z,-0.20
2018-02-21T22:34:03.260Z,-0.20
2018-02-21T22:36:33.762Z,-0.20
2018-02-21T22:39:04.296Z,-0.30
2018-02-21T22:41:34.827Z,-0.30
2018-02-21T22:44:05.684Z,-0.40
2018-02-21T22:46:36.115Z,-0.40
2018-02-21T22:49:06.480Z,-0.40
2018-02-21T22:51:37.196Z,-0.40
2018-02-21T22:54:07.552Z,-0.50
2018-02-21T22:56:38.383Z,-0.50
2018-02-21T22:59:08.831Z,-0.50
2018-02-21T23:01:39.308Z,-0.60
2018-02-21T23:04:09.848Z,-0.60
2018-02-21T23:06:40.375Z,-0.60
2018-02-21T23:09:10.765Z,-0.60
2018-02-21T23:11:41.243Z,-0.70
2018-02-21T23:14:11.450Z,-0.70
2018-02-21T23:16:42.213Z,-0.70
2018-02-21T23:19:12.919Z,-0.70
2018-02-21T23:21:43.546Z,-0.70
2018-02-21T23:24:14.025Z,-0.80
2018-02-21T23:26:44.462Z,-0.80
2018-02-21T23:29:14.876Z,-0.80
2018-02-21T23:31:45.652Z,-0.90
2018-02-21T23:34:16.086Z,-0.90
2018-02-21T23:36:46.628Z,-0.90
2018-02-21T23:39:17.179Z,-0.90
2018-02-21T23:41:48.015Z,-0.90
2018-02-21T23:44:18.469Z,-0.90
2018-02-21T23:46:48.892Z,-0.90
2018-02-21T23:49:19.325Z,-0.90
2018-02-21T23:51:49.741Z,-0.90
2018-02-21T23:54:20.179Z,-1.00
2018-02-21T23:56:50.953Z,-1.00
2018-02-21T23:59:21.542Z,-1.00
